<?xml version="1.0" encoding="UTF-8"?>
<gpx xmlns="http://www.topografix.com/GPX/1/1" xmlns:xsi="http://www.w3.org/2001/XMLSchema-instance" version="1.1" xsi:schemaLocation="http://www.topografix.com/GPX/1/1 http://www.topografix.com/GPX/1/1/gpx.xsd">
  <metadata>
    <name>Mobay Triathlon Festival 2023</name>
  </metadata>
  <trk>
    <name>Mobay Triathlon Festival 2023</name>
    <trkseg>
      <trkpt lat="18.473746" lon="-77.924919">
        <ele>4.885925</ele>
        <time>2023-10-01T06:15:00.000Z</time>
      </trkpt>
      <trkpt lat="18.474601" lon="-77.92497">
        <ele>4.885936</ele>
        <time>2023-10-01T06:15:10.000Z</time>
      </trkpt>
      <trkpt lat="18.474875" lon="-77.924935">
        <ele>4.986656</ele>
        <time>2023-10-01T06:15:13.000Z</time>
      </trkpt>
      <trkpt lat="18.475015" lon="-77.924918">
        <ele>5.045948</ele>
        <time>2023-10-01T06:15:15.000Z</time>
      </trkpt>
      <trkpt lat="18.475252" lon="-77.924866">
        <ele>5.148992</ele>
        <time>2023-10-01T06:15:18.000Z</time>
      </trkpt>
      <trkpt lat="18.476118" lon="-77.924642">
        <ele>5.523587</ele>
        <time>2023-10-01T06:15:28.000Z</time>
      </trkpt>
      <trkpt lat="18.476346" lon="-77.924633">
        <ele>5.623624</ele>
        <time>2023-10-01T06:15:31.000Z</time>
      </trkpt>
      <trkpt lat="18.476466" lon="-77.924663">
        <ele>5.697708</ele>
        <time>2023-10-01T06:15:32.000Z</time>
      </trkpt>
      <trkpt lat="18.476469" lon="-77.924656">
        <ele>5.701038</ele>
        <time>2023-10-01T06:15:32.000Z</time>
      </trkpt>
      <trkpt lat="18.476676" lon="-77.924767">
        <ele>5.88614</ele>
        <time>2023-10-01T06:15:35.000Z</time>
      </trkpt>
      <trkpt lat="18.476861" lon="-77.924875">
        <ele>6.060237</ele>
        <time>2023-10-01T06:15:37.000Z</time>
      </trkpt>
      <trkpt lat="18.477666" lon="-77.925727">
        <ele>6.985205</ele>
        <time>2023-10-01T06:15:50.000Z</time>
      </trkpt>
      <trkpt lat="18.478329" lon="-77.926611">
        <ele>7.544107</ele>
        <time>2023-10-01T06:16:02.000Z</time>
      </trkpt>
      <trkpt lat="18.478563" lon="-77.927071">
        <ele>7.782109</ele>
        <time>2023-10-01T06:16:08.000Z</time>
      </trkpt>
      <trkpt lat="18.478913" lon="-77.927747">
        <ele>8.43437</ele>
        <time>2023-10-01T06:16:16.000Z</time>
      </trkpt>
      <trkpt lat="18.479104" lon="-77.928046">
        <ele>8.895317</ele>
        <time>2023-10-01T06:16:20.000Z</time>
      </trkpt>
      <trkpt lat="18.479282" lon="-77.928253">
        <ele>9.247696</ele>
        <time>2023-10-01T06:16:23.000Z</time>
      </trkpt>
      <trkpt lat="18.47992" lon="-77.928741">
        <ele>10.295678</ele>
        <time>2023-10-01T06:16:32.000Z</time>
      </trkpt>
      <trkpt lat="18.480441" lon="-77.929111">
        <ele>11.545654</ele>
        <time>2023-10-01T06:16:39.000Z</time>
      </trkpt>
      <trkpt lat="18.48076" lon="-77.929296">
        <ele>12.278831</ele>
        <time>2023-10-01T06:16:43.000Z</time>
      </trkpt>
      <trkpt lat="18.480772" lon="-77.929309">
        <ele>12.299477</ele>
        <time>2023-10-01T06:16:43.000Z</time>
      </trkpt>
      <trkpt lat="18.48081" lon="-77.929322">
        <ele>12.398195</ele>
        <time>2023-10-01T06:16:43.000Z</time>
      </trkpt>
      <trkpt lat="18.481063" lon="-77.929379">
        <ele>12.92473</ele>
        <time>2023-10-01T06:16:46.000Z</time>
      </trkpt>
      <trkpt lat="18.481237" lon="-77.929371">
        <ele>13.277957</ele>
        <time>2023-10-01T06:16:48.000Z</time>
      </trkpt>
      <trkpt lat="18.481253" lon="-77.929387">
        <ele>13.312489</ele>
        <time>2023-10-01T06:16:48.000Z</time>
      </trkpt>
      <trkpt lat="18.481934" lon="-77.929328">
        <ele>14.310958</ele>
        <time>2023-10-01T06:16:56.000Z</time>
      </trkpt>
      <trkpt lat="18.48212" lon="-77.929357">
        <ele>14.463196</ele>
        <time>2023-10-01T06:16:58.000Z</time>
      </trkpt>
      <trkpt lat="18.482177" lon="-77.929407">
        <ele>14.524524</ele>
        <time>2023-10-01T06:16:59.000Z</time>
      </trkpt>
      <trkpt lat="18.482289" lon="-77.929507">
        <ele>14.641713</ele>
        <time>2023-10-01T06:17:01.000Z</time>
      </trkpt>
      <trkpt lat="18.482621" lon="-77.929924">
        <ele>15.069011</ele>
        <time>2023-10-01T06:17:07.000Z</time>
      </trkpt>
      <trkpt lat="18.482751" lon="-77.930058">
        <ele>15.219938</ele>
        <time>2023-10-01T06:17:09.000Z</time>
      </trkpt>
      <trkpt lat="18.482928" lon="-77.930142">
        <ele>15.383805</ele>
        <time>2023-10-01T06:17:11.000Z</time>
      </trkpt>
      <trkpt lat="18.483066" lon="-77.930184">
        <ele>15.499932</ele>
        <time>2023-10-01T06:17:13.000Z</time>
      </trkpt>
      <trkpt lat="18.483263" lon="-77.930239">
        <ele>16.213502</ele>
        <time>2023-10-01T06:17:15.000Z</time>
      </trkpt>
      <trkpt lat="18.483685" lon="-77.930218">
        <ele>17.809047</ele>
        <time>2023-10-01T06:17:20.000Z</time>
      </trkpt>
      <trkpt lat="18.483832" lon="-77.930178">
        <ele>18.43348</ele>
        <time>2023-10-01T06:17:22.000Z</time>
      </trkpt>
      <trkpt lat="18.484165" lon="-77.930027">
        <ele>19.768777</ele>
        <time>2023-10-01T06:17:26.000Z</time>
      </trkpt>
      <trkpt lat="18.484851" lon="-77.929681">
        <ele>22.694454</ele>
        <time>2023-10-01T06:17:34.000Z</time>
      </trkpt>
      <trkpt lat="18.485692" lon="-77.929066">
        <ele>26.441897</ele>
        <time>2023-10-01T06:17:45.000Z</time>
      </trkpt>
      <trkpt lat="18.486034" lon="-77.928928">
        <ele>27.752785</ele>
        <time>2023-10-01T06:17:49.000Z</time>
      </trkpt>
      <trkpt lat="18.486733" lon="-77.928777">
        <ele>27.633441</ele>
        <time>2023-10-01T06:17:57.000Z</time>
      </trkpt>
      <trkpt lat="18.487019" lon="-77.928541">
        <ele>26.308023</ele>
        <time>2023-10-01T06:18:01.000Z</time>
      </trkpt>
      <trkpt lat="18.487445" lon="-77.928012">
        <ele>23.942295</ele>
        <time>2023-10-01T06:18:08.000Z</time>
      </trkpt>
      <trkpt lat="18.487716" lon="-77.927735">
        <ele>22.623958</ele>
        <time>2023-10-01T06:18:12.000Z</time>
      </trkpt>
      <trkpt lat="18.487938" lon="-77.927577">
        <ele>21.008244</ele>
        <time>2023-10-01T06:18:15.000Z</time>
      </trkpt>
      <trkpt lat="18.488109" lon="-77.927478">
        <ele>19.792776</ele>
        <time>2023-10-01T06:18:17.000Z</time>
      </trkpt>
      <trkpt lat="18.488358" lon="-77.927469">
        <ele>18.273927</ele>
        <time>2023-10-01T06:18:20.000Z</time>
      </trkpt>
      <trkpt lat="18.488474" lon="-77.92747">
        <ele>17.566989</ele>
        <time>2023-10-01T06:18:21.000Z</time>
      </trkpt>
      <trkpt lat="18.488559" lon="-77.927467">
        <ele>17.067385</ele>
        <time>2023-10-01T06:18:22.000Z</time>
      </trkpt>
      <trkpt lat="18.488699" lon="-77.927464">
        <ele>16.293461</ele>
        <time>2023-10-01T06:18:24.000Z</time>
      </trkpt>
      <trkpt lat="18.48957" lon="-77.927467">
        <ele>11.723528</ele>
        <time>2023-10-01T06:18:34.000Z</time>
      </trkpt>
      <trkpt lat="18.489785" lon="-77.927464">
        <ele>12.066187</ele>
        <time>2023-10-01T06:18:36.000Z</time>
      </trkpt>
      <trkpt lat="18.489875" lon="-77.92747">
        <ele>12.197757</ele>
        <time>2023-10-01T06:18:37.000Z</time>
      </trkpt>
      <trkpt lat="18.490112" lon="-77.927447">
        <ele>12.553475</ele>
        <time>2023-10-01T06:18:40.000Z</time>
      </trkpt>
      <trkpt lat="18.490373" lon="-77.927398">
        <ele>12.971799</ele>
        <time>2023-10-01T06:18:43.000Z</time>
      </trkpt>
      <trkpt lat="18.49016" lon="-77.926109">
        <ele>16.577128</ele>
        <time>2023-10-01T06:18:57.000Z</time>
      </trkpt>
      <trkpt lat="18.490131" lon="-77.925971">
        <ele>17.451299</ele>
        <time>2023-10-01T06:18:58.000Z</time>
      </trkpt>
      <trkpt lat="18.490112" lon="-77.925659">
        <ele>19.280232</ele>
        <time>2023-10-01T06:19:01.000Z</time>
      </trkpt>
      <trkpt lat="18.490151" lon="-77.925297">
        <ele>21.45914</ele>
        <time>2023-10-01T06:19:05.000Z</time>
      </trkpt>
      <trkpt lat="18.490379" lon="-77.9248">
        <ele>24.639204</ele>
        <time>2023-10-01T06:19:11.000Z</time>
      </trkpt>
      <trkpt lat="18.490757" lon="-77.924208">
        <ele>25.328173</ele>
        <time>2023-10-01T06:19:19.000Z</time>
      </trkpt>
      <trkpt lat="18.492356" lon="-77.921733">
        <ele>20.516034</ele>
        <time>2023-10-01T06:19:51.000Z</time>
      </trkpt>
      <trkpt lat="18.493379" lon="-77.920171">
        <ele>16.819196</ele>
        <time>2023-10-01T06:20:11.000Z</time>
      </trkpt>
      <trkpt lat="18.494285" lon="-77.918749">
        <ele>15.637496</ele>
        <time>2023-10-01T06:20:29.000Z</time>
      </trkpt>
      <trkpt lat="18.494901" lon="-77.917769">
        <ele>16.941068</ele>
        <time>2023-10-01T06:20:41.000Z</time>
      </trkpt>
      <trkpt lat="18.4952" lon="-77.917311">
        <ele>18.014881</ele>
        <time>2023-10-01T06:20:47.000Z</time>
      </trkpt>
      <trkpt lat="18.495265" lon="-77.917156">
        <ele>18.353944</ele>
        <time>2023-10-01T06:20:49.000Z</time>
      </trkpt>
      <trkpt lat="18.495204" lon="-77.916976">
        <ele>18.739191</ele>
        <time>2023-10-01T06:20:51.000Z</time>
      </trkpt>
      <trkpt lat="18.495144" lon="-77.916917">
        <ele>18.917841</ele>
        <time>2023-10-01T06:20:52.000Z</time>
      </trkpt>
      <trkpt lat="18.495037" lon="-77.916854">
        <ele>19.202623</ele>
        <time>2023-10-01T06:20:53.000Z</time>
      </trkpt>
      <trkpt lat="18.494997" lon="-77.916832">
        <ele>19.337312</ele>
        <time>2023-10-01T06:20:54.000Z</time>
      </trkpt>
      <trkpt lat="18.494769" lon="-77.916598">
        <ele>20.346978</ele>
        <time>2023-10-01T06:20:58.000Z</time>
      </trkpt>
      <trkpt lat="18.494708" lon="-77.916484">
        <ele>20.732857</ele>
        <time>2023-10-01T06:20:59.000Z</time>
      </trkpt>
      <trkpt lat="18.494708" lon="-77.916351">
        <ele>21.10336</ele>
        <time>2023-10-01T06:21:00.000Z</time>
      </trkpt>
      <trkpt lat="18.494992" lon="-77.915588">
        <ele>23.564508</ele>
        <time>2023-10-01T06:21:09.000Z</time>
      </trkpt>
      <trkpt lat="18.49512" lon="-77.915286">
        <ele>24.584724</ele>
        <time>2023-10-01T06:21:12.000Z</time>
      </trkpt>
      <trkpt lat="18.495291" lon="-77.914971">
        <ele>24.522737</ele>
        <time>2023-10-01T06:21:16.000Z</time>
      </trkpt>
      <trkpt lat="18.495564" lon="-77.914562">
        <ele>23.901991</ele>
        <time>2023-10-01T06:21:21.000Z</time>
      </trkpt>
      <trkpt lat="18.496333" lon="-77.913628">
        <ele>22.174682</ele>
        <time>2023-10-01T06:21:34.000Z</time>
      </trkpt>
      <trkpt lat="18.496729" lon="-77.912981">
        <ele>19.845273</ele>
        <time>2023-10-01T06:21:42.000Z</time>
      </trkpt>
      <trkpt lat="18.497686" lon="-77.910933">
        <ele>13.624923</ele>
        <time>2023-10-01T06:22:06.000Z</time>
      </trkpt>
      <trkpt lat="18.498337" lon="-77.909681">
        <ele>10.851433</ele>
        <time>2023-10-01T06:22:21.000Z</time>
      </trkpt>
      <trkpt lat="18.500319" lon="-77.905568">
        <ele>4.543931</ele>
        <time>2023-10-01T06:23:10.000Z</time>
      </trkpt>
      <trkpt lat="18.500611" lon="-77.905058">
        <ele>4.315422</ele>
        <time>2023-10-01T06:23:16.000Z</time>
      </trkpt>
      <trkpt lat="18.500934" lon="-77.904625">
        <ele>4.486873</ele>
        <time>2023-10-01T06:23:22.000Z</time>
      </trkpt>
      <trkpt lat="18.501464" lon="-77.904111">
        <ele>4.723278</ele>
        <time>2023-10-01T06:23:30.000Z</time>
      </trkpt>
      <trkpt lat="18.502031" lon="-77.903675">
        <ele>5.440141</ele>
        <time>2023-10-01T06:23:38.000Z</time>
      </trkpt>
      <trkpt lat="18.502442" lon="-77.903455">
        <ele>6.093845</ele>
        <time>2023-10-01T06:23:43.000Z</time>
      </trkpt>
      <trkpt lat="18.50361" lon="-77.902915">
        <ele>7.677836</ele>
        <time>2023-10-01T06:23:57.000Z</time>
      </trkpt>
      <trkpt lat="18.504667" lon="-77.902428">
        <ele>8.685826</ele>
        <time>2023-10-01T06:24:10.000Z</time>
      </trkpt>
      <trkpt lat="18.505068" lon="-77.902201">
        <ele>8.853907</ele>
        <time>2023-10-01T06:24:15.000Z</time>
      </trkpt>
      <trkpt lat="18.505903" lon="-77.901608">
        <ele>8.541137</ele>
        <time>2023-10-01T06:24:26.000Z</time>
      </trkpt>
      <trkpt lat="18.506352" lon="-77.901213">
        <ele>8.359904</ele>
        <time>2023-10-01T06:24:33.000Z</time>
      </trkpt>
      <trkpt lat="18.50677" lon="-77.900768">
        <ele>8.004394</ele>
        <time>2023-10-01T06:24:40.000Z</time>
      </trkpt>
      <trkpt lat="18.507257" lon="-77.900177">
        <ele>7.571093</ele>
        <time>2023-10-01T06:24:48.000Z</time>
      </trkpt>
      <trkpt lat="18.507548" lon="-77.899726">
        <ele>7.24893</ele>
        <time>2023-10-01T06:24:54.000Z</time>
      </trkpt>
      <trkpt lat="18.507742" lon="-77.899367">
        <ele>6.955753</ele>
        <time>2023-10-01T06:24:58.000Z</time>
      </trkpt>
      <trkpt lat="18.509233" lon="-77.895938">
        <ele>4.364722</ele>
        <time>2023-10-01T06:25:38.000Z</time>
      </trkpt>
      <trkpt lat="18.51038" lon="-77.893385">
        <ele>3.508386</ele>
        <time>2023-10-01T06:26:08.000Z</time>
      </trkpt>
      <trkpt lat="18.512363" lon="-77.888788">
        <ele>5.215175</ele>
        <time>2023-10-01T06:27:01.000Z</time>
      </trkpt>
      <trkpt lat="18.513894" lon="-77.885099">
        <ele>11.169449</ele>
        <time>2023-10-01T06:27:43.000Z</time>
      </trkpt>
      <trkpt lat="18.514359" lon="-77.883943">
        <ele>12.130379</ele>
        <time>2023-10-01T06:27:56.000Z</time>
      </trkpt>
      <trkpt lat="18.514757" lon="-77.882767">
        <ele>11.381703</ele>
        <time>2023-10-01T06:28:09.000Z</time>
      </trkpt>
      <trkpt lat="18.514982" lon="-77.88203">
        <ele>10.485405</ele>
        <time>2023-10-01T06:28:17.000Z</time>
      </trkpt>
      <trkpt lat="18.514991" lon="-77.881943">
        <ele>10.341179</ele>
        <time>2023-10-01T06:28:18.000Z</time>
      </trkpt>
      <trkpt lat="18.515453" lon="-77.8805">
        <ele>8.066964</ele>
        <time>2023-10-01T06:28:34.000Z</time>
      </trkpt>
      <trkpt lat="18.515789" lon="-77.879436">
        <ele>7.071783</ele>
        <time>2023-10-01T06:28:46.000Z</time>
      </trkpt>
      <trkpt lat="18.516022" lon="-77.878843">
        <ele>6.528617</ele>
        <time>2023-10-01T06:28:53.000Z</time>
      </trkpt>
      <trkpt lat="18.516203" lon="-77.878429">
        <ele>6.3712</ele>
        <time>2023-10-01T06:28:58.000Z</time>
      </trkpt>
      <trkpt lat="18.516441" lon="-77.877963">
        <ele>6.195777</ele>
        <time>2023-10-01T06:29:04.000Z</time>
      </trkpt>
      <trkpt lat="18.516741" lon="-77.877448">
        <ele>5.992384</ele>
        <time>2023-10-01T06:29:10.000Z</time>
      </trkpt>
      <trkpt lat="18.517085" lon="-77.876933">
        <ele>5.798862</ele>
        <time>2023-10-01T06:29:17.000Z</time>
      </trkpt>
      <trkpt lat="18.51839" lon="-77.8753">
        <ele>5.233656</ele>
        <time>2023-10-01T06:29:40.000Z</time>
      </trkpt>
      <trkpt lat="18.518806" lon="-77.87476">
        <ele>5.079516</ele>
        <time>2023-10-01T06:29:47.000Z</time>
      </trkpt>
      <trkpt lat="18.51921" lon="-77.874033">
        <ele>4.910292</ele>
        <time>2023-10-01T06:29:56.000Z</time>
      </trkpt>
      <trkpt lat="18.519386" lon="-77.873642">
        <ele>4.845943</ele>
        <time>2023-10-01T06:30:01.000Z</time>
      </trkpt>
      <trkpt lat="18.519501" lon="-77.873267">
        <ele>4.788738</ele>
        <time>2023-10-01T06:30:05.000Z</time>
      </trkpt>
      <trkpt lat="18.519673" lon="-77.872553">
        <ele>4.682409</ele>
        <time>2023-10-01T06:30:13.000Z</time>
      </trkpt>
      <trkpt lat="18.520021" lon="-77.870826">
        <ele>3.968012</ele>
        <time>2023-10-01T06:30:32.000Z</time>
      </trkpt>
      <trkpt lat="18.520495" lon="-77.868767">
        <ele>3.121754</ele>
        <time>2023-10-01T06:30:54.000Z</time>
      </trkpt>
      <trkpt lat="18.520685" lon="-77.867763">
        <ele>3.740263</ele>
        <time>2023-10-01T06:31:05.000Z</time>
      </trkpt>
      <trkpt lat="18.520941" lon="-77.866716">
        <ele>4.475645</ele>
        <time>2023-10-01T06:31:16.000Z</time>
      </trkpt>
      <trkpt lat="18.521094" lon="-77.865751">
        <ele>5.42873</ele>
        <time>2023-10-01T06:31:26.000Z</time>
      </trkpt>
      <trkpt lat="18.521259" lon="-77.864291">
        <ele>6.237032</ele>
        <time>2023-10-01T06:31:42.000Z</time>
      </trkpt>
      <trkpt lat="18.521201" lon="-77.864286">
        <ele>6.245239</ele>
        <time>2023-10-01T06:31:43.000Z</time>
      </trkpt>
      <trkpt lat="18.521147" lon="-77.864287">
        <ele>6.251427</ele>
        <time>2023-10-01T06:31:44.000Z</time>
      </trkpt>
      <trkpt lat="18.52099" lon="-77.865732">
        <ele>6.009298</ele>
        <time>2023-10-01T06:31:59.000Z</time>
      </trkpt>
      <trkpt lat="18.520835" lon="-77.866685">
        <ele>5.129378</ele>
        <time>2023-10-01T06:32:09.000Z</time>
      </trkpt>
      <trkpt lat="18.520342" lon="-77.86871">
        <ele>3.513851</ele>
        <time>2023-10-01T06:32:31.000Z</time>
      </trkpt>
      <trkpt lat="18.519461" lon="-77.872867">
        <ele>4.707036</ele>
        <time>2023-10-01T06:33:16.000Z</time>
      </trkpt>
      <trkpt lat="18.519279" lon="-77.873583">
        <ele>4.804066</ele>
        <time>2023-10-01T06:33:24.000Z</time>
      </trkpt>
      <trkpt lat="18.519096" lon="-77.874008">
        <ele>4.863911</ele>
        <time>2023-10-01T06:33:29.000Z</time>
      </trkpt>
      <trkpt lat="18.518833" lon="-77.874514">
        <ele>4.944392</ele>
        <time>2023-10-01T06:33:35.000Z</time>
      </trkpt>
      <trkpt lat="18.518445" lon="-77.875059">
        <ele>5.110173</ele>
        <time>2023-10-01T06:33:42.000Z</time>
      </trkpt>
      <trkpt lat="18.516995" lon="-77.876871">
        <ele>5.782173</ele>
        <time>2023-10-01T06:34:07.000Z</time>
      </trkpt>
      <trkpt lat="18.516611" lon="-77.877426">
        <ele>6.00231</ele>
        <time>2023-10-01T06:34:14.000Z</time>
      </trkpt>
      <trkpt lat="18.516145" lon="-77.878257">
        <ele>6.29757</ele>
        <time>2023-10-01T06:34:24.000Z</time>
      </trkpt>
      <trkpt lat="18.515833" lon="-77.879034">
        <ele>6.551754</ele>
        <time>2023-10-01T06:34:33.000Z</time>
      </trkpt>
      <trkpt lat="18.515619" lon="-77.879641">
        <ele>7.140093</ele>
        <time>2023-10-01T06:34:40.000Z</time>
      </trkpt>
      <trkpt lat="18.515258" lon="-77.880835">
        <ele>8.428557</ele>
        <time>2023-10-01T06:34:53.000Z</time>
      </trkpt>
      <trkpt lat="18.514978" lon="-77.881667">
        <ele>9.800913</ele>
        <time>2023-10-01T06:35:02.000Z</time>
      </trkpt>
      <trkpt lat="18.514907" lon="-77.881908">
        <ele>10.20597</ele>
        <time>2023-10-01T06:35:05.000Z</time>
      </trkpt>
      <trkpt lat="18.514886" lon="-77.882005">
        <ele>10.356489</ele>
        <time>2023-10-01T06:35:06.000Z</time>
      </trkpt>
      <trkpt lat="18.514803" lon="-77.882244">
        <ele>10.788379</ele>
        <time>2023-10-01T06:35:09.000Z</time>
      </trkpt>
      <trkpt lat="18.514235" lon="-77.883886">
        <ele>12.192557</ele>
        <time>2023-10-01T06:35:27.000Z</time>
      </trkpt>
      <trkpt lat="18.513794" lon="-77.885055">
        <ele>11.502228</ele>
        <time>2023-10-01T06:35:40.000Z</time>
      </trkpt>
      <trkpt lat="18.512158" lon="-77.888908">
        <ele>4.823013</ele>
        <time>2023-10-01T06:36:25.000Z</time>
      </trkpt>
      <trkpt lat="18.512099" lon="-77.889037">
        <ele>4.637843</ele>
        <time>2023-10-01T06:36:27.000Z</time>
      </trkpt>
      <trkpt lat="18.511866" lon="-77.88958">
        <ele>3.878532</ele>
        <time>2023-10-01T06:36:33.000Z</time>
      </trkpt>
      <trkpt lat="18.510653" lon="-77.892392">
        <ele>3.628339</ele>
        <time>2023-10-01T06:37:06.000Z</time>
      </trkpt>
      <trkpt lat="18.510235" lon="-77.893335">
        <ele>3.876819</ele>
        <time>2023-10-01T06:37:17.000Z</time>
      </trkpt>
      <trkpt lat="18.508087" lon="-77.898264">
        <ele>7.075028</ele>
        <time>2023-10-01T06:38:14.000Z</time>
      </trkpt>
      <trkpt lat="18.507451" lon="-77.899672">
        <ele>7.916783</ele>
        <time>2023-10-01T06:38:30.000Z</time>
      </trkpt>
      <trkpt lat="18.507174" lon="-77.900095">
        <ele>8.201389</ele>
        <time>2023-10-01T06:38:35.000Z</time>
      </trkpt>
      <trkpt lat="18.506911" lon="-77.900424">
        <ele>8.509252</ele>
        <time>2023-10-01T06:38:40.000Z</time>
      </trkpt>
      <trkpt lat="18.506632" lon="-77.900766">
        <ele>8.824409</ele>
        <time>2023-10-01T06:38:45.000Z</time>
      </trkpt>
      <trkpt lat="18.506296" lon="-77.901102">
        <ele>9.172722</ele>
        <time>2023-10-01T06:38:50.000Z</time>
      </trkpt>
      <trkpt lat="18.505774" lon="-77.901554">
        <ele>9.569168</ele>
        <time>2023-10-01T06:38:58.000Z</time>
      </trkpt>
      <trkpt lat="18.505206" lon="-77.90198">
        <ele>9.82436</ele>
        <time>2023-10-01T06:39:06.000Z</time>
      </trkpt>
      <trkpt lat="18.504598" lon="-77.90233">
        <ele>10.072783</ele>
        <time>2023-10-01T06:39:14.000Z</time>
      </trkpt>
      <trkpt lat="18.503542" lon="-77.902787">
        <ele>8.699817</ele>
        <time>2023-10-01T06:39:27.000Z</time>
      </trkpt>
      <trkpt lat="18.502411" lon="-77.903321">
        <ele>6.80221</ele>
        <time>2023-10-01T06:39:41.000Z</time>
      </trkpt>
      <trkpt lat="18.501974" lon="-77.903575">
        <ele>5.919577</ele>
        <time>2023-10-01T06:39:47.000Z</time>
      </trkpt>
      <trkpt lat="18.501532" lon="-77.903869">
        <ele>5.021119</ele>
        <time>2023-10-01T06:39:53.000Z</time>
      </trkpt>
      <trkpt lat="18.501245" lon="-77.904118">
        <ele>4.465616</ele>
        <time>2023-10-01T06:39:57.000Z</time>
      </trkpt>
      <trkpt lat="18.501046" lon="-77.904304">
        <ele>4.475401</ele>
        <time>2023-10-01T06:40:00.000Z</time>
      </trkpt>
      <trkpt lat="18.50071" lon="-77.90471">
        <ele>4.495524</ele>
        <time>2023-10-01T06:40:06.000Z</time>
      </trkpt>
      <trkpt lat="18.500388" lon="-77.905187">
        <ele>4.517244</ele>
        <time>2023-10-01T06:40:12.000Z</time>
      </trkpt>
      <trkpt lat="18.5001" lon="-77.905705">
        <ele>4.790431</ele>
        <time>2023-10-01T06:40:18.000Z</time>
      </trkpt>
      <trkpt lat="18.498226" lon="-77.90959">
        <ele>12.231767</ele>
        <time>2023-10-01T06:41:04.000Z</time>
      </trkpt>
      <trkpt lat="18.496701" lon="-77.912789">
        <ele>20.828981</ele>
        <time>2023-10-01T06:41:42.000Z</time>
      </trkpt>
      <trkpt lat="18.496429" lon="-77.913263">
        <ele>22.380823</ele>
        <time>2023-10-01T06:41:48.000Z</time>
      </trkpt>
      <trkpt lat="18.495983" lon="-77.913916">
        <ele>24.59985</ele>
        <time>2023-10-01T06:41:56.000Z</time>
      </trkpt>
      <trkpt lat="18.495625" lon="-77.914295">
        <ele>25.198668</ele>
        <time>2023-10-01T06:42:02.000Z</time>
      </trkpt>
      <trkpt lat="18.495334" lon="-77.914708">
        <ele>25.726009</ele>
        <time>2023-10-01T06:42:07.000Z</time>
      </trkpt>
      <trkpt lat="18.494946" lon="-77.915445">
        <ele>26.588805</ele>
        <time>2023-10-01T06:42:16.000Z</time>
      </trkpt>
      <trkpt lat="18.494654" lon="-77.916271">
        <ele>24.893837</ele>
        <time>2023-10-01T06:42:25.000Z</time>
      </trkpt>
      <trkpt lat="18.494381" lon="-77.916985">
        <ele>23.386594</ele>
        <time>2023-10-01T06:42:33.000Z</time>
      </trkpt>
      <trkpt lat="18.494263" lon="-77.917345">
        <ele>22.584213</ele>
        <time>2023-10-01T06:42:37.000Z</time>
      </trkpt>
      <trkpt lat="18.494165" lon="-77.917482">
        <ele>22.144605</ele>
        <time>2023-10-01T06:42:39.000Z</time>
      </trkpt>
      <trkpt lat="18.494188" lon="-77.917802">
        <ele>21.322686</ele>
        <time>2023-10-01T06:42:42.000Z</time>
      </trkpt>
      <trkpt lat="18.494237" lon="-77.917992">
        <ele>20.836452</ele>
        <time>2023-10-01T06:42:44.000Z</time>
      </trkpt>
      <trkpt lat="18.494296" lon="-77.918039">
        <ele>20.648712</ele>
        <time>2023-10-01T06:42:45.000Z</time>
      </trkpt>
      <trkpt lat="18.494356" lon="-77.918248">
        <ele>20.100492</ele>
        <time>2023-10-01T06:42:47.000Z</time>
      </trkpt>
      <trkpt lat="18.494331" lon="-77.918469">
        <ele>19.531303</ele>
        <time>2023-10-01T06:42:49.000Z</time>
      </trkpt>
      <trkpt lat="18.494284" lon="-77.918759">
        <ele>18.795149</ele>
        <time>2023-10-01T06:42:52.000Z</time>
      </trkpt>
      <trkpt lat="18.493386" lon="-77.920163">
        <ele>17.693195</ele>
        <time>2023-10-01T06:43:10.000Z</time>
      </trkpt>
      <trkpt lat="18.492341" lon="-77.921724">
        <ele>20.612678</ele>
        <time>2023-10-01T06:43:30.000Z</time>
      </trkpt>
      <trkpt lat="18.490765" lon="-77.924192">
        <ele>25.030374</ele>
        <time>2023-10-01T06:44:01.000Z</time>
      </trkpt>
      <trkpt lat="18.490367" lon="-77.924803">
        <ele>23.197592</ele>
        <time>2023-10-01T06:44:09.000Z</time>
      </trkpt>
      <trkpt lat="18.490141" lon="-77.9253">
        <ele>21.856054</ele>
        <time>2023-10-01T06:44:15.000Z</time>
      </trkpt>
      <trkpt lat="18.490103" lon="-77.925649">
        <ele>19.829499</ele>
        <time>2023-10-01T06:44:19.000Z</time>
      </trkpt>
      <trkpt lat="18.490139" lon="-77.925962">
        <ele>18.082431</ele>
        <time>2023-10-01T06:44:22.000Z</time>
      </trkpt>
      <trkpt lat="18.490161" lon="-77.926104">
        <ele>17.247389</ele>
        <time>2023-10-01T06:44:24.000Z</time>
      </trkpt>
      <trkpt lat="18.490384" lon="-77.927405">
        <ele>11.568204</ele>
        <time>2023-10-01T06:44:38.000Z</time>
      </trkpt>
      <trkpt lat="18.490117" lon="-77.927448">
        <ele>12.188538</ele>
        <time>2023-10-01T06:44:41.000Z</time>
      </trkpt>
      <trkpt lat="18.489877" lon="-77.927461">
        <ele>12.716026</ele>
        <time>2023-10-01T06:44:44.000Z</time>
      </trkpt>
      <trkpt lat="18.489781" lon="-77.92746">
        <ele>12.911125</ele>
        <time>2023-10-01T06:44:45.000Z</time>
      </trkpt>
      <trkpt lat="18.489566" lon="-77.927476">
        <ele>13.419259</ele>
        <time>2023-10-01T06:44:47.000Z</time>
      </trkpt>
      <trkpt lat="18.4887" lon="-77.927456">
        <ele>15.816729</ele>
        <time>2023-10-01T06:44:57.000Z</time>
      </trkpt>
      <trkpt lat="18.488556" lon="-77.927472">
        <ele>16.615969</ele>
        <time>2023-10-01T06:44:59.000Z</time>
      </trkpt>
      <trkpt lat="18.488479" lon="-77.92747">
        <ele>17.131919</ele>
        <time>2023-10-01T06:45:00.000Z</time>
      </trkpt>
      <trkpt lat="18.488368" lon="-77.927469">
        <ele>17.861995</ele>
        <time>2023-10-01T06:45:01.000Z</time>
      </trkpt>
      <trkpt lat="18.488111" lon="-77.927492">
        <ele>19.430527</ele>
        <time>2023-10-01T06:45:04.000Z</time>
      </trkpt>
      <trkpt lat="18.487948" lon="-77.927584">
        <ele>20.685781</ele>
        <time>2023-10-01T06:45:06.000Z</time>
      </trkpt>
      <trkpt lat="18.487711" lon="-77.927731">
        <ele>22.423789</ele>
        <time>2023-10-01T06:45:09.000Z</time>
      </trkpt>
      <trkpt lat="18.487441" lon="-77.928004">
        <ele>24.738536</ele>
        <time>2023-10-01T06:45:13.000Z</time>
      </trkpt>
      <trkpt lat="18.48703" lon="-77.92854">
        <ele>26.703723</ele>
        <time>2023-10-01T06:45:20.000Z</time>
      </trkpt>
      <trkpt lat="18.486738" lon="-77.928782">
        <ele>26.917982</ele>
        <time>2023-10-01T06:45:24.000Z</time>
      </trkpt>
      <trkpt lat="18.486025" lon="-77.928936">
        <ele>27.328702</ele>
        <time>2023-10-01T06:45:32.000Z</time>
      </trkpt>
      <trkpt lat="18.485693" lon="-77.929061">
        <ele>27.406624</ele>
        <time>2023-10-01T06:45:36.000Z</time>
      </trkpt>
      <trkpt lat="18.484838" lon="-77.929669">
        <ele>22.51912</ele>
        <time>2023-10-01T06:45:47.000Z</time>
      </trkpt>
      <trkpt lat="18.484153" lon="-77.930029">
        <ele>18.950575</ele>
        <time>2023-10-01T06:45:56.000Z</time>
      </trkpt>
      <trkpt lat="18.483844" lon="-77.930184">
        <ele>18.144393</ele>
        <time>2023-10-01T06:46:00.000Z</time>
      </trkpt>
      <trkpt lat="18.483687" lon="-77.930224">
        <ele>17.767382</ele>
        <time>2023-10-01T06:46:02.000Z</time>
      </trkpt>
      <trkpt lat="18.483261" lon="-77.930231">
        <ele>16.804069</ele>
        <time>2023-10-01T06:46:07.000Z</time>
      </trkpt>
      <trkpt lat="18.483065" lon="-77.930187">
        <ele>16.317007</ele>
        <time>2023-10-01T06:46:09.000Z</time>
      </trkpt>
      <trkpt lat="18.482924" lon="-77.930153">
        <ele>15.991814</ele>
        <time>2023-10-01T06:46:11.000Z</time>
      </trkpt>
      <trkpt lat="18.482744" lon="-77.930052">
        <ele>15.532965</ele>
        <time>2023-10-01T06:46:13.000Z</time>
      </trkpt>
      <trkpt lat="18.482614" lon="-77.929924">
        <ele>15.110387</ele>
        <time>2023-10-01T06:46:15.000Z</time>
      </trkpt>
      <trkpt lat="18.482282" lon="-77.929513">
        <ele>14.439572</ele>
        <time>2023-10-01T06:46:21.000Z</time>
      </trkpt>
      <trkpt lat="18.482183" lon="-77.929409">
        <ele>14.299862</ele>
        <time>2023-10-01T06:46:23.000Z</time>
      </trkpt>
      <trkpt lat="18.482128" lon="-77.929349">
        <ele>14.226725</ele>
        <time>2023-10-01T06:46:24.000Z</time>
      </trkpt>
      <trkpt lat="18.481947" lon="-77.929312">
        <ele>14.045229</ele>
        <time>2023-10-01T06:46:26.000Z</time>
      </trkpt>
      <trkpt lat="18.481257" lon="-77.929384">
        <ele>13.364194</ele>
        <time>2023-10-01T06:46:34.000Z</time>
      </trkpt>
      <trkpt lat="18.481235" lon="-77.929375">
        <ele>13.34738</ele>
        <time>2023-10-01T06:46:34.000Z</time>
      </trkpt>
      <trkpt lat="18.481056" lon="-77.929382">
        <ele>13.17534</ele>
        <time>2023-10-01T06:46:36.000Z</time>
      </trkpt>
      <trkpt lat="18.480815" lon="-77.929327">
        <ele>12.756591</ele>
        <time>2023-10-01T06:46:39.000Z</time>
      </trkpt>
      <trkpt lat="18.48077" lon="-77.929303">
        <ele>12.649918</ele>
        <time>2023-10-01T06:46:40.000Z</time>
      </trkpt>
      <trkpt lat="18.480759" lon="-77.929291">
        <ele>12.627608</ele>
        <time>2023-10-01T06:46:40.000Z</time>
      </trkpt>
      <trkpt lat="18.480443" lon="-77.929113">
        <ele>11.835265</ele>
        <time>2023-10-01T06:46:44.000Z</time>
      </trkpt>
      <trkpt lat="18.479917" lon="-77.928736">
        <ele>10.435313</ele>
        <time>2023-10-01T06:46:51.000Z</time>
      </trkpt>
      <trkpt lat="18.479296" lon="-77.928246">
        <ele>8.964399</ele>
        <time>2023-10-01T06:47:00.000Z</time>
      </trkpt>
      <trkpt lat="18.479113" lon="-77.928049">
        <ele>8.746128</ele>
        <time>2023-10-01T06:47:03.000Z</time>
      </trkpt>
      <trkpt lat="18.47892" lon="-77.927744">
        <ele>8.46062</ele>
        <time>2023-10-01T06:47:07.000Z</time>
      </trkpt>
      <trkpt lat="18.478565" lon="-77.927072">
        <ele>7.851308</ele>
        <time>2023-10-01T06:47:15.000Z</time>
      </trkpt>
      <trkpt lat="18.478346" lon="-77.926594">
        <ele>7.520978</ele>
        <time>2023-10-01T06:47:21.000Z</time>
      </trkpt>
      <trkpt lat="18.477664" lon="-77.925739">
        <ele>7.081406</ele>
        <time>2023-10-01T06:47:33.000Z</time>
      </trkpt>
      <trkpt lat="18.476855" lon="-77.924886">
        <ele>6.504712</ele>
        <time>2023-10-01T06:47:46.000Z</time>
      </trkpt>
      <trkpt lat="18.476598" lon="-77.924498">
        <ele>6.240488</ele>
        <time>2023-10-01T06:47:51.000Z</time>
      </trkpt>
      <trkpt lat="18.476571" lon="-77.924379">
        <ele>6.17803</ele>
        <time>2023-10-01T06:47:52.000Z</time>
      </trkpt>
      <trkpt lat="18.476435" lon="-77.924402">
        <ele>6.103963</ele>
        <time>2023-10-01T06:47:54.000Z</time>
      </trkpt>
      <trkpt lat="18.476267" lon="-77.924447">
        <ele>6.001985</ele>
        <time>2023-10-01T06:47:56.000Z</time>
      </trkpt>
      <trkpt lat="18.475497" lon="-77.924682">
        <ele>5.608494</ele>
        <time>2023-10-01T06:48:05.000Z</time>
      </trkpt>
      <trkpt lat="18.474891" lon="-77.924811">
        <ele>5.344971</ele>
        <time>2023-10-01T06:48:12.000Z</time>
      </trkpt>
      <trkpt lat="18.474596" lon="-77.924829">
        <ele>5.22065</ele>
        <time>2023-10-01T06:48:15.000Z</time>
      </trkpt>
      <trkpt lat="18.47374" lon="-77.924808">
        <ele>4.99901908237</ele>
        <time>2023-10-01T06:48:25.000Z</time>
      </trkpt>
      <trkpt lat="18.473739" lon="-77.924907">
        <ele>4.97471260629</ele>
        <time>2023-10-01T06:48:26.000Z</time>
      </trkpt>
      <trkpt lat="18.473743" lon="-77.925589">
        <ele>4.80727428835</ele>
        <time>2023-10-01T06:48:33.000Z</time>
      </trkpt>
      <trkpt lat="18.473728" lon="-77.925638">
        <ele>4.79463343752</ele>
        <time>2023-10-01T06:48:34.000Z</time>
      </trkpt>
    </trkseg>
  </trk>
</gpx>

<!--
Performance optimized by W3 Total Cache. Learn more: https://www.boldgrid.com/w3-total-cache/?utm_source=w3tc&utm_medium=footer_comment&utm_campaign=free_plugin

Page Caching using Disk: Enhanced{w3tc_pagecache_reject_reason} 

Served from: www.aquabike.world @ 2026-05-07 12:45:52 by W3 Total Cache
-->